createdAt,value
2018-12-18T00:00:04.001Z,19.20
2018-12-18T00:05:13.701Z,18.47
2018-12-18T00:10:18.278Z,18.17
2018-12-18T00:15:22.789Z,18.87
2018-12-18T00:20:27.305Z,18.13
2018-12-18T00:25:31.918Z,18.23
2018-12-18T00:30:36.429Z,18.63
2018-12-18T00:35:41.013Z,18.60
2018-12-18T00:40:45.555Z,18.10
2018-12-18T00:45:50.084Z,18.57
2018-12-18T00:50:54.608Z,17.10
2018-12-18T00:55:59.106Z,17.83
2018-12-18T01:01:03.628Z,17.13
2018-12-18T01:06:08.153Z,18.17
2018-12-18T01:11:12.687Z,16.23
2018-12-18T01:16:17.201Z,16.83
2018-12-18T01:21:21.749Z,17.13
2018-12-18T01:26:26.278Z,16.27
2018-12-18T01:31:30.846Z,16.43
2018-12-18T01:36:35.369Z,16.57
2018-12-18T01:41:39.997Z,16.17
2018-12-18T01:46:44.502Z,15.83
2018-12-18T01:51:49.019Z,15.07
2018-12-18T01:56:53.534Z,15.33
2018-12-18T02:01:58.049Z,14.30
2018-12-18T02:07:02.533Z,15.40
2018-12-18T02:12:07.053Z,15.37
2018-12-18T02:17:11.643Z,13.80
2018-12-18T02:22:16.149Z,14.07
2018-12-18T02:27:20.691Z,14.87
2018-12-18T02:32:25.247Z,15.00
2018-12-18T02:37:29.792Z,15.13
2018-12-18T02:42:34.315Z,16.50
2018-12-18T02:47:38.870Z,14.10
2018-12-18T02:52:43.390Z,14.67
2018-12-18T02:57:47.902Z,13.50
2018-12-18T03:02:52.409Z,13.67
2018-12-18T03:07:56.909Z,14.67
2018-12-18T03:13:01.418Z,14.10
2018-12-18T03:18:05.927Z,15.53
2018-12-18T03:23:10.433Z,14.67
2018-12-18T03:28:14.954Z,13.47
2018-12-18T03:33:19.475Z,15.23
2018-12-18T03:38:24.014Z,14.30
2018-12-18T03:43:28.521Z,14.80
2018-12-18T03:48:33.222Z,15.07
2018-12-18T03:53:37.737Z,15.50
2018-12-18T03:58:42.251Z,14.60
2018-12-18T04:03:46.766Z,14.47
2018-12-18T04:08:51.277Z,14.37
2018-12-18T04:13:55.817Z,15.60
2018-12-18T04:19:00.319Z,15.50
2018-12-18T04:24:04.824Z,14.77
2018-12-18T04:29:09.328Z,13.83
2018-12-18T04:34:13.821Z,14.03
2018-12-18T04:39:18.368Z,15.60
2018-12-18T04:44:22.881Z,14.37
2018-12-18T04:49:27.407Z,15.37
2018-12-18T04:54:31.910Z,14.53
2018-12-18T04:59:36.435Z,14.27
2018-12-18T05:04:40.981Z,14.13
2018-12-18T05:09:45.504Z,14.40
2018-12-18T05:14:50.023Z,12.83
2018-12-18T05:19:54.509Z,14.10
2018-12-18T05:24:59.011Z,14.07
2018-12-18T05:30:03.537Z,13.40
2018-12-18T05:35:08.073Z,13.50
2018-12-18T05:40:12.598Z,14.47
2018-12-18T05:45:17.266Z,14.03
2018-12-18T05:50:21.851Z,14.30
2018-12-18T05:55:26.361Z,13.60
2018-12-18T06:00:30.923Z,15.27
2018-12-18T06:05:35.433Z,14.60
2018-12-18T06:10:39.990Z,13.53
2018-12-18T06:15:44.501Z,13.37
2018-12-18T06:20:49.042Z,13.13
2018-12-18T06:25:53.557Z,14.33
2018-12-18T06:30:58.041Z,13.83
2018-12-18T06:36:02.666Z,13.60
2018-12-18T06:41:07.157Z,14.03
2018-12-18T06:46:11.674Z,14.40
2018-12-18T06:51:16.168Z,13.07
2018-12-18T06:56:20.673Z,12.70
2018-12-18T07:01:25.185Z,13.53
2018-12-18T07:06:29.689Z,13.10
2018-12-18T07:11:34.195Z,13.73
2018-12-18T07:16:40.777Z,15.07
2018-12-18T07:21:45.341Z,15.17
2018-12-18T07:26:49.903Z,15.93
2018-12-18T07:31:54.447Z,15.10
2018-12-18T07:36:59.073Z,16.87
2018-12-18T07:42:03.574Z,15.27
2018-12-18T07:47:08.071Z,15.27
2018-12-18T07:52:12.597Z,14.30
2018-12-18T07:57:17.092Z,15.10
2018-12-18T08:02:21.724Z,14.60
2018-12-18T08:07:26.230Z,15.70
2018-12-18T08:12:30.769Z,16.00
2018-12-18T08:17:35.370Z,17.87
2018-12-18T08:22:39.872Z,16.13
2018-12-18T08:27:44.405Z,16.47
2018-12-18T08:32:48.931Z,16.60
2018-12-18T08:37:53.519Z,17.60
2018-12-18T08:42:58.027Z,17.93
2018-12-18T08:48:02.626Z,17.13
2018-12-18T08:53:07.132Z,18.90
2018-12-18T08:58:11.685Z,17.40
2018-12-18T09:03:16.210Z,17.27
2018-12-18T09:08:20.706Z,17.00
2018-12-18T09:13:25.234Z,18.37
2018-12-18T09:18:29.877Z,17.67
2018-12-18T09:23:34.494Z,17.90
2018-12-18T09:28:39.090Z,17.43
2018-12-18T09:33:43.612Z,18.03
2018-12-18T09:38:53.397Z,18.77
2018-12-18T09:44:15.861Z,17.97
2018-12-18T09:50:49.379Z,18.63
2018-12-18T09:55:54.012Z,17.00
2018-12-18T10:00:58.554Z,16.90
2018-12-18T10:06:03.042Z,17.73
2018-12-18T10:11:07.548Z,19.50
2018-12-18T10:16:12.058Z,17.80
2018-12-18T10:21:16.618Z,17.17
2018-12-18T10:26:21.130Z,17.40
2018-12-18T10:31:25.656Z,17.10
2018-12-18T10:36:30.255Z,17.90
2018-12-18T10:41:34.752Z,17.67
2018-12-18T10:46:39.295Z,18.10
2018-12-18T10:51:43.819Z,18.30
2018-12-18T10:56:48.869Z,18.47
2018-12-18T11:01:53.726Z,18.50
2018-12-18T11:06:58.383Z,18.50
2018-12-18T11:12:02.892Z,18.23
2018-12-18T11:17:07.398Z,18.27
2018-12-18T11:22:11.895Z,18.83
2018-12-18T11:27:16.541Z,18.10
2018-12-18T11:37:42.547Z,19.37
2018-12-18T11:42:47.187Z,18.07
2018-12-18T11:47:51.698Z,19.43
2018-12-18T11:52:56.223Z,17.27
2018-12-18T11:58:00.782Z,17.70
2018-12-18T12:03:05.290Z,18.77
2018-12-18T12:08:09.935Z,16.93
2018-12-18T12:13:17.126Z,17.77
2018-12-18T12:18:24.444Z,16.23
2018-12-18T12:23:44.431Z,16.77
2018-12-18T12:28:55.937Z,17.33
2018-12-18T12:34:06.734Z,17.83
2018-12-18T12:39:17.915Z,16.53
2018-12-18T12:44:29.318Z,16.33
2018-12-18T12:49:43.847Z,16.73
2018-12-18T12:56:31.689Z,16.77
2018-12-18T13:01:42.961Z,16.97
2018-12-18T13:11:45.219Z,16.93
2018-12-18T13:16:50.447Z,17.20
2018-12-18T13:21:55.677Z,15.43
2018-12-18T13:27:00.914Z,15.53
2018-12-18T13:32:06.153Z,15.07
2018-12-18T13:37:11.398Z,15.43
2018-12-18T13:42:16.630Z,15.47
2018-12-18T13:47:27.170Z,16.53
2018-12-18T13:52:27.151Z,15.07
2018-12-18T13:57:32.408Z,15.03
2018-12-18T14:02:37.701Z,15.93
2018-12-18T14:07:43.038Z,15.20
2018-12-18T14:12:53.566Z,16.77
2018-12-18T14:17:58.813Z,16.20
2018-12-18T14:23:04.057Z,15.83
2018-12-18T14:28:09.326Z,13.93
2018-12-18T14:33:14.594Z,15.20
2018-12-18T14:38:19.939Z,13.77
2018-12-18T14:43:25.194Z,13.53
2018-12-18T14:48:30.430Z,13.93
2018-12-18T14:53:35.723Z,13.37
2018-12-18T14:58:40.997Z,14.90
2018-12-18T15:03:46.237Z,14.33
2018-12-18T15:08:51.470Z,12.97
2018-12-18T15:13:56.702Z,15.53
2018-12-18T15:19:01.938Z,14.43
2018-12-18T15:24:07.190Z,14.80
2018-12-18T15:29:12.435Z,13.80
2018-12-18T15:34:17.704Z,17.70
2018-12-18T15:39:23.334Z,16.43
2018-12-18T15:44:28.573Z,14.43
2018-12-18T15:49:33.826Z,16.60
2018-12-18T15:54:39.114Z,16.23
2018-12-18T15:59:44.355Z,15.33
2018-12-18T16:04:49.594Z,16.73
2018-12-18T16:09:54.836Z,16.53
2018-12-18T16:15:00.083Z,17.13
2018-12-18T16:20:05.993Z,17.27
2018-12-18T16:25:11.311Z,16.47
2018-12-18T16:30:16.552Z,16.57
2018-12-18T16:35:21.823Z,17.60
2018-12-18T16:40:27.082Z,14.77
2018-12-18T16:45:32.333Z,19.07
2018-12-18T16:50:37.571Z,18.80
2018-12-18T16:55:42.917Z,16.47
2018-12-18T17:00:48.177Z,16.10
2018-12-18T17:05:53.418Z,15.60
2018-12-18T17:10:58.669Z,15.77
2018-12-18T17:16:03.921Z,14.10
2018-12-18T17:21:09.171Z,14.70
2018-12-18T17:26:15.713Z,14.43
2018-12-18T17:31:19.859Z,15.53
2018-12-18T17:36:25.113Z,15.10
2018-12-18T17:41:30.353Z,15.27
2018-12-18T17:56:17.221Z,15.90
2018-12-18T18:01:26.362Z,16.50
2018-12-18T18:06:31.665Z,15.00
2018-12-18T18:11:37.351Z,15.77
2018-12-18T18:16:42.674Z,15.73
2018-12-18T18:21:47.955Z,14.73
2018-12-18T18:26:53.209Z,14.97
2018-12-18T18:31:58.629Z,14.13
2018-12-18T18:37:03.942Z,13.53
2018-12-18T18:42:09.289Z,15.40
2018-12-18T18:47:14.633Z,14.17
2018-12-18T18:52:19.935Z,13.33
2018-12-18T18:57:25.159Z,14.10
2018-12-18T19:02:30.454Z,14.07
2018-12-18T19:07:35.802Z,14.63
2018-12-18T19:12:41.090Z,13.67
2018-12-18T19:17:46.823Z,13.40
2018-12-18T19:22:52.075Z,13.00
2018-12-18T19:27:57.338Z,12.77
2018-12-18T19:33:02.606Z,12.90
2018-12-18T19:38:07.856Z,14.20
2018-12-18T19:43:13.109Z,14.33
2018-12-18T19:48:18.386Z,13.90
2018-12-18T19:53:23.635Z,13.57
2018-12-18T19:58:28.919Z,13.43
2018-12-18T20:03:34.182Z,15.07
2018-12-18T20:08:39.445Z,15.23
2018-12-18T20:13:44.694Z,14.70
2018-12-18T20:18:49.958Z,15.90
2018-12-18T20:23:55.210Z,13.93
2018-12-18T20:29:00.489Z,14.90
2018-12-18T20:34:05.790Z,14.67
2018-12-18T20:39:11.462Z,14.73
2018-12-18T20:44:16.689Z,13.87
2018-12-18T20:49:21.942Z,14.67
2018-12-18T20:54:27.171Z,14.80
2018-12-18T20:59:32.406Z,14.87
2018-12-18T21:04:38.034Z,14.83
2018-12-18T21:09:42.930Z,15.40
2018-12-18T21:14:48.174Z,13.33
2018-12-18T21:19:53.479Z,14.17
2018-12-18T21:24:58.734Z,14.47
2018-12-18T21:30:04.022Z,13.67
2018-12-18T21:35:09.258Z,14.57
2018-12-18T21:40:14.489Z,14.00
2018-12-18T21:45:19.716Z,13.80
2018-12-18T21:50:24.973Z,13.30
2018-12-18T21:55:30.227Z,14.20
2018-12-18T22:00:35.470Z,15.10
2018-12-18T22:05:40.749Z,13.83
2018-12-18T22:10:45.990Z,15.00
2018-12-18T22:15:51.263Z,15.13
2018-12-18T22:20:56.498Z,15.40
2018-12-18T22:26:01.736Z,15.37
2018-12-18T22:31:06.973Z,15.37
2018-12-18T22:36:12.199Z,14.80
2018-12-18T22:41:17.458Z,14.17
2018-12-18T22:46:22.719Z,14.73
2018-12-18T22:51:28.002Z,14.63
2018-12-18T22:56:33.603Z,17.47
2018-12-18T23:01:44.073Z,16.30
2018-12-18T23:06:49.306Z,16.87
2018-12-18T23:11:54.565Z,15.53
2018-12-18T23:16:59.814Z,15.07
2018-12-18T23:22:05.061Z,16.13
2018-12-18T23:27:10.281Z,14.97
2018-12-18T23:32:15.549Z,16.37
2018-12-18T23:37:20.808Z,16.37
2018-12-18T23:42:26.045Z,17.40
2018-12-18T23:47:31.300Z,16.50
2018-12-18T23:52:36.546Z,18.23
2018-12-18T23:57:41.826Z,17.03
